Time;durP1;ratioP1;P1;durP2;ratioP2;P2;SDS_P1;SDS_P2;PMS_P1;PMS_P2;Temp;Humidity;BMP_temperature;BMP_pressure;BME280_temperature;BME280_humidity;BME280_pressure;Samples;Min_cycle;Max_cycle;Signal;HPM_P1;HPM_P2
2022/11/17 00:00:20;;;;;;;11.90;10.65;;;;;;;;;;5092568;28;20190;-59
2022/11/17 00:02:47;;;;;;;12.13;11.02;;;;;;;;;;5092957;28;20683;-60
2022/11/17 00:05:14;;;;;;;12.65;11.32;;;;;;;;;;5092930;28;20286;-59
2022/11/17 00:07:42;;;;;;;12.55;11.25;;;;;;;;;;5092704;28;20218;-60
2022/11/17 00:10:09;;;;;;;13.68;11.30;;;;;;;;;;5092561;28;20654;-59
2022/11/17 00:15:21;;;;;;;12.10;10.50;;;;;;;;;;5094525;28;20272;-60
2022/11/17 00:21:17;;;;;;;12.27;10.48;;;;;;;;;;5096997;28;20225;-62
2022/11/17 00:23:23;;;;;;;11.88;10.70;;;;;;;;;;5096798;28;20198;-60
2022/11/17 00:25:50;;;;;;;11.65;10.32;;;;;;;;;;5096855;28;20674;-61
2022/11/17 00:28:17;;;;;;;14.63;10.98;;;;;;;;;;5096476;28;20186;-61
2022/11/17 00:36:17;;;;;;;11.95;10.75;;;;;;;;;;5083157;28;20673;-61
2022/11/17 00:38:45;;;;;;;12.27;11.05;;;;;;;;;;5096374;28;20194;-61
2022/11/17 00:41:12;;;;;;;12.30;11.10;;;;;;;;;;5096123;28;20218;-61
2022/11/17 00:43:39;;;;;;;11.68;10.45;;;;;;;;;;5096099;28;20277;-61
2022/11/17 00:46:06;;;;;;;11.65;10.48;;;;;;;;;;5096024;28;20281;-61
2022/11/17 00:48:35;;;;;;;10.98;9.73;;;;;;;;;;5095953;28;20226;-61
2022/11/17 00:51:03;;;;;;;10.65;9.55;;;;;;;;;;5095871;28;20705;-61
2022/11/17 00:53:30;;;;;;;11.68;10.48;;;;;;;;;;5095943;28;20222;-61
2022/11/17 00:55:59;;;;;;;10.63;9.63;;;;;;;;;;5095949;28;20277;-61
2022/11/17 00:58:26;;;;;;;12.55;10.95;;;;;;;;;;5095737;28;20194;-61
2022/11/17 01:00:52;;;;;;;12.02;10.27;;;;;;;;;;5095598;28;20245;-61
2022/11/17 01:03:19;;;;;;;11.88;10.00;;;;;;;;;;5095793;28;20276;-61
2022/11/17 01:05:46;;;;;;;11.85;10.55;;;;;;;;;;5095772;28;20222;-61
2022/11/17 01:08:13;;;;;;;12.20;11.00;;;;;;;;;;5095911;28;20213;-61
2022/11/17 01:10:40;;;;;;;11.48;10.27;;;;;;;;;;5095260;28;20289;-61
2022/11/17 01:13:08;;;;;;;12.18;10.80;;;;;;;;;;5095518;28;20669;-61
2022/11/17 01:15:35;;;;;;;12.98;10.55;;;;;;;;;;5095385;28;20191;-61
2022/11/17 01:18:02;;;;;;;10.75;9.75;;;;;;;;;;5095601;28;20289;-61
2022/11/17 01:20:29;;;;;;;10.75;9.55;;;;;;;;;;5095713;28;20236;-60
2022/11/17 01:22:56;;;;;;;12.10;10.60;;;;;;;;;;5095180;28;20285;-61
2022/11/17 01:25:23;;;;;;;11.73;10.52;;;;;;;;;;5094982;28;20193;-60
2022/11/17 01:27:50;;;;;;;9.68;8.75;;;;;;;;;;5095123;28;20289;-61
2022/11/17 01:30:18;;;;;;;11.50;10.18;;;;;;;;;;5095639;28;20556;-61
2022/11/17 01:32:45;;;;;;;10.50;9.50;;;;;;;;;;5095196;28;20227;-61
2022/11/17 01:35:12;;;;;;;10.50;9.40;;;;;;;;;;5095144;28;20194;-61
2022/11/17 01:37:39;;;;;;;10.13;9.13;;;;;;;;;;5094952;28;20708;-61
2022/11/17 01:40:07;;;;;;;10.73;9.70;;;;;;;;;;5094925;28;20190;-61
2022/11/17 01:42:33;;;;;;;10.40;8.77;;;;;;;;;;5094752;28;20313;-61
2022/11/17 01:45:01;;;;;;;10.32;9.32;;;;;;;;;;5095038;28;20549;-61
2022/11/17 01:47:35;;;;;;;11.00;9.55;;;;;;;;;;5094816;28;20245;-61
2022/11/17 01:50:05;;;;;;;10.80;9.70;;;;;;;;;;5094772;28;20273;-61
2022/11/17 01:52:32;;;;;;;9.70;8.75;;;;;;;;;;5094710;28;20199;-61
2022/11/17 01:55:00;;;;;;;9.27;8.25;;;;;;;;;;5094633;28;20286;-61
2022/11/17 01:57:29;;;;;;;9.50;8.65;;;;;;;;;;5094825;28;20194;-61
2022/11/17 01:59:58;;;;;;;10.45;9.45;;;;;;;;;;5094737;28;20622;-61
2022/11/17 02:02:24;;;;;;;9.40;8.55;;;;;;;;;;5094476;28;20319;-61
2022/11/17 02:04:56;;;;;;;9.73;8.82;;;;;;;;;;5094484;28;20277;-60
2022/11/17 02:07:25;;;;;;;9.13;8.25;;;;;;;;;;5094334;28;20197;-61
2022/11/17 02:09:53;;;;;;;9.98;9.07;;;;;;;;;;5094628;28;20221;-61
2022/11/17 02:12:20;;;;;;;8.68;7.82;;;;;;;;;;5094436;28;20248;-61
2022/11/17 02:14:49;;;;;;;9.15;8.30;;;;;;;;;;5094346;28;20285;-61
2022/11/17 02:17:16;;;;;;;13.25;8.10;;;;;;;;;;5094263;28;20281;-60
2022/11/17 02:19:44;;;;;;;11.98;9.13;;;;;;;;;;5094367;28;20733;-60
2022/11/17 02:22:23;;;;;;;9.48;8.55;;;;;;;;;;5094359;28;20218;-61
2022/11/17 02:25:00;;;;;;;10.00;8.95;;;;;;;;;;5094236;28;20526;-61
2022/11/17 02:27:32;;;;;;;8.93;8.13;;;;;;;;;;5094196;28;20190;-61
2022/11/17 02:30:01;;;;;;;9.90;8.90;;;;;;;;;;5094029;28;20201;-61
2022/11/17 02:32:30;;;;;;;10.43;9.43;;;;;;;;;;5093922;28;20604;-61
2022/11/17 02:35:04;;;;;;;8.85;7.95;;;;;;;;;;5093871;28;20668;-61
2022/11/17 02:37:34;;;;;;;11.40;10.35;;;;;;;;;;5093389;28;20218;-61
2022/11/17 02:40:03;;;;;;;11.32;10.13;;;;;;;;;;5093870;28;20285;-61
2022/11/17 02:45:22;;;;;;;11.27;9.15;;;;;;;;;;5093785;28;20251;-60
2022/11/17 02:47:51;;;;;;;11.85;9.70;;;;;;;;;;5093421;28;20708;-61
2022/11/17 02:50:20;;;;;;;11.30;8.95;;;;;;;;;;5093690;28;20582;-60
2022/11/17 02:52:47;;;;;;;11.63;9.45;;;;;;;;;;5093588;28;20288;-60
2022/11/17 02:55:14;;;;;;;9.95;8.88;;;;;;;;;;5093494;28;20393;-61
2022/11/17 02:57:42;;;;;;;10.48;9.43;;;;;;;;;;5093445;28;20702;-61
2022/11/17 03:00:11;;;;;;;11.40;10.20;;;;;;;;;;5093610;28;20225;-61
2022/11/17 03:02:45;;;;;;;11.52;10.32;;;;;;;;;;5093355;28;20229;-60
2022/11/17 03:05:15;;;;;;;11.25;9.38;;;;;;;;;;5093469;28;20624;-60
2022/11/17 03:07:49;;;;;;;11.60;10.50;;;;;;;;;;5093248;28;20642;-61
2022/11/17 03:10:17;;;;;;;10.90;9.80;;;;;;;;;;5093525;28;20274;-60
2022/11/17 03:12:48;;;;;;;14.60;9.35;;;;;;;;;;5093329;28;20198;-61
2022/11/17 03:15:23;;;;;;;11.85;10.35;;;;;;;;;;5093361;28;20255;-61
2022/11/17 03:17:54;;;;;;;13.48;10.30;;;;;;;;;;5093294;28;20553;-60
2022/11/17 03:20:23;;;;;;;12.80;10.20;;;;;;;;;;5093085;28;20199;-60
2022/11/17 03:22:53;;;;;;;11.07;9.40;;;;;;;;;;5093248;28;20226;-61
2022/11/17 03:25:21;;;;;;;11.00;9.75;;;;;;;;;;5093250;28;20190;-61
2022/11/17 03:27:53;;;;;;;10.95;9.82;;;;;;;;;;5093066;28;20186;-61
2022/11/17 03:30:21;;;;;;;11.02;10.02;;;;;;;;;;5093142;28;20617;-61
2022/11/17 03:32:50;;;;;;;10.88;9.75;;;;;;;;;;5092894;28;20276;-61
2022/11/17 03:35:19;;;;;;;14.07;9.73;;;;;;;;;;5093159;28;20190;-61
2022/11/17 03:37:48;;;;;;;11.10;10.00;;;;;;;;;;5093111;28;20197;-61
2022/11/17 03:40:19;;;;;;;11.60;10.18;;;;;;;;;;5093090;28;20193;-61
2022/11/17 03:42:51;;;;;;;11.77;10.35;;;;;;;;;;5092934;28;20214;-60
2022/11/17 03:45:21;;;;;;;13.52;12.05;;;;;;;;;;5092843;28;20585;-61
2022/11/17 03:47:51;;;;;;;11.65;10.55;;;;;;;;;;5092754;28;20226;-60
2022/11/17 03:50:22;;;;;;;12.05;9.90;;;;;;;;;;5096667;28;20286;-61
2022/11/17 03:52:49;;;;;;;10.93;9.82;;;;;;;;;;5097088;28;20551;-61
2022/11/17 03:55:16;;;;;;;10.70;9.60;;;;;;;;;;5096979;28;20683;-61
2022/11/17 03:57:47;;;;;;;12.25;10.70;;;;;;;;;;5096901;28;20191;-61
2022/11/17 04:00:14;;;;;;;12.13;10.80;;;;;;;;;;5097173;28;20197;-60
2022/11/17 04:02:43;;;;;;;10.55;9.52;;;;;;;;;;5096962;28;20234;-61
2022/11/17 04:05:11;;;;;;;11.65;10.45;;;;;;;;;;5096958;28;20194;-61
2022/11/17 04:07:39;;;;;;;11.65;10.45;;;;;;;;;;5096833;28;20198;-60
2022/11/17 04:10:08;;;;;;;12.75;11.45;;;;;;;;;;5096659;28;20212;-60
2022/11/17 04:18:15;;;;;;;15.70;11.18;;;;;;;;;;5096328;28;20684;-61
2022/11/17 04:20:42;;;;;;;12.27;11.00;;;;;;;;;;5096409;28;20187;-61
2022/11/17 04:23:12;;;;;;;14.68;10.88;;;;;;;;;;5096314;28;20748;-61
2022/11/17 04:28:37;;;;;;;14.30;11.27;;;;;;;;;;5096470;28;20190;-60
2022/11/17 04:31:05;;;;;;;12.23;11.02;;;;;;;;;;5096310;28;20221;-61
2022/11/17 04:33:33;;;;;;;12.82;11.45;;;;;;;;;;5096196;28;20198;-61
2022/11/17 04:36:00;;;;;;;13.77;12.32;;;;;;;;;;5096130;28;20200;-61
2022/11/17 04:38:27;;;;;;;14.07;12.52;;;;;;;;;;5096332;28;20544;-60
2022/11/17 04:43:45;;;;;;;14.60;12.80;;;;;;;;;;5096218;28;20241;-60
2022/11/17 04:46:12;;;;;;;13.88;11.48;;;;;;;;;;5096135;28;20247;-61
2022/11/17 04:48:40;;;;;;;12.98;11.60;;;;;;;;;;5096074;28;20692;-61
2022/11/17 04:51:07;;;;;;;14.48;13.07;;;;;;;;;;5095906;28;20195;-61
2022/11/17 04:53:34;;;;;;;14.93;11.93;;;;;;;;;;5095881;28;20194;-61
2022/11/17 04:56:01;;;;;;;16.17;11.95;;;;;;;;;;5096085;28;20187;-62
2022/11/17 04:58:28;;;;;;;14.55;12.95;;;;;;;;;;5095933;28;20277;-61
2022/11/17 05:00:55;;;;;;;14.98;13.27;;;;;;;;;;5095160;28;20545;-61
2022/11/17 05:03:22;;;;;;;14.32;12.57;;;;;;;;;;5095736;28;20303;-61
2022/11/17 05:05:50;;;;;;;14.27;12.77;;;;;;;;;;5095744;28;20290;-61
2022/11/17 05:08:17;;;;;;;12.93;11.63;;;;;;;;;;5095636;28;20196;-61
2022/11/17 05:13:28;;;;;;;12.75;10.80;;;;;;;;;;5095570;28;20374;-61
2022/11/17 05:18:41;;;;;;;13.35;11.95;;;;;;;;;;5095713;28;20252;-61
2022/11/17 05:21:11;;;;;;;15.48;12.50;;;;;;;;;;5095341;28;20198;-62
2022/11/17 05:23:53;;;;;;;14.60;12.80;;;;;;;;;;5095427;28;20558;-61
2022/11/17 05:26:21;;;;;;;13.15;11.75;;;;;;;;;;5095382;28;20198;-61
2022/11/17 05:28:48;;;;;;;14.05;12.55;;;;;;;;;;5095264;28;20194;-61
2022/11/17 05:31:15;;;;;;;12.88;11.55;;;;;;;;;;5095663;28;20200;-61
2022/11/17 05:33:42;;;;;;;13.68;12.23;;;;;;;;;;5094968;28;20313;-61
2022/11/17 05:36:10;;;;;;;15.10;13.30;;;;;;;;;;5095287;28;20277;-61
2022/11/17 05:38:37;;;;;;;14.32;12.75;;;;;;;;;;5095124;28;20210;-61
2022/11/17 05:41:04;;;;;;;14.60;12.98;;;;;;;;;;5095177;28;20631;-61
2022/11/17 05:43:31;;;;;;;13.70;12.32;;;;;;;;;;5094887;28;20229;-61
2022/11/17 05:45:58;;;;;;;15.18;12.00;;;;;;;;;;5094843;28;20224;-60
2022/11/17 05:48:25;;;;;;;13.13;11.82;;;;;;;;;;5094773;28;20332;-61
2022/11/17 05:50:53;;;;;;;13.38;12.05;;;;;;;;;;5094873;28;20273;-61
2022/11/17 05:53:21;;;;;;;12.73;11.48;;;;;;;;;;5094767;28;20199;-60
2022/11/17 05:55:48;;;;;;;13.18;11.77;;;;;;;;;;5094801;28;20191;-60
2022/11/17 05:58:18;;;;;;;13.93;12.50;;;;;;;;;;5094706;28;20330;-61
2022/11/17 06:00:45;;;;;;;13.82;11.63;;;;;;;;;;5094723;28;20187;-61
2022/11/17 06:03:14;;;;;;;14.00;12.32;;;;;;;;;;5094680;28;20306;-61
2022/11/17 06:05:41;;;;;;;13.10;11.70;;;;;;;;;;5094558;28;20186;-61
2022/11/17 06:08:08;;;;;;;13.65;11.05;;;;;;;;;;5094517;28;20661;-61
2022/11/17 06:10:36;;;;;;;13.52;12.18;;;;;;;;;;5094230;28;20240;-60
2022/11/17 06:13:03;;;;;;;12.95;11.38;;;;;;;;;;5093147;28;20193;-61
2022/11/17 06:15:30;;;;;;;12.10;10.90;;;;;;;;;;5094124;28;20190;-60
2022/11/17 06:17:59;;;;;;;11.98;10.88;;;;;;;;;;5094808;28;20276;-61
2022/11/17 06:20:27;;;;;;;11.45;10.20;;;;;;;;;;5094290;28;20328;-61
2022/11/17 06:22:56;;;;;;;12.88;10.90;;;;;;;;;;5094059;28;20210;-61
2022/11/17 06:25:23;;;;;;;11.93;10.73;;;;;;;;;;5094088;28;20668;-59
2022/11/17 06:27:51;;;;;;;11.50;10.40;;;;;;;;;;5093902;28;20200;-61
2022/11/17 06:30:18;;;;;;;12.65;11.35;;;;;;;;;;5094138;28;20248;-61
2022/11/17 06:32:46;;;;;;;12.05;10.55;;;;;;;;;;5094168;28;20235;-61
2022/11/17 06:35:15;;;;;;;13.35;12.02;;;;;;;;;;5093844;28;20193;-61
2022/11/17 06:37:42;;;;;;;12.85;11.60;;;;;;;;;;5093716;28;20190;-61
2022/11/17 06:40:12;;;;;;;11.65;10.15;;;;;;;;;;5093832;28;20193;-61
2022/11/17 06:45:24;;;;;;;16.73;12.93;;;;;;;;;;5093851;28;20192;-61
2022/11/17 06:47:53;;;;;;;15.48;11.43;;;;;;;;;;5093635;28;20218;-61
2022/11/17 06:50:20;;;;;;;12.20;10.90;;;;;;;;;;5093447;28;20620;-60
2022/11/17 06:52:47;;;;;;;11.68;10.38;;;;;;;;;;5093476;28;20201;-61
2022/11/17 06:55:14;;;;;;;12.45;11.25;;;;;;;;;;5093435;28;20722;-61
2022/11/17 06:57:41;;;;;;;14.30;11.90;;;;;;;;;;5093498;28;20197;-61
2022/11/17 07:00:08;;;;;;;12.02;10.82;;;;;;;;;;5093608;28;20190;-61
2022/11/17 07:02:37;;;;;;;12.57;10.25;;;;;;;;;;5093518;28;20263;-61
2022/11/17 07:05:04;;;;;;;13.07;11.02;;;;;;;;;;5093314;28;20214;-61
2022/11/17 07:07:31;;;;;;;11.05;10.00;;;;;;;;;;5093288;28;20198;-60
2022/11/17 07:09:57;;;;;;;12.85;11.52;;;;;;;;;;5093451;28;20190;-61
2022/11/17 07:12:24;;;;;;;12.07;10.88;;;;;;;;;;5093277;28;20186;-61
2022/11/17 07:14:51;;;;;;;11.23;10.00;;;;;;;;;;5093282;28;20201;-61
2022/11/17 07:17:18;;;;;;;10.43;9.38;;;;;;;;;;5093162;28;20592;-61
2022/11/17 07:19:46;;;;;;;10.90;9.80;;;;;;;;;;5093119;28;20290;-61
2022/11/17 07:22:13;;;;;;;11.48;10.27;;;;;;;;;;5092841;28;20282;-61
2022/11/17 07:24:40;;;;;;;13.40;10.18;;;;;;;;;;5092813;28;20740;-61
2022/11/17 07:27:07;;;;;;;11.00;9.40;;;;;;;;;;5093133;28;20273;-60
2022/11/17 07:29:34;;;;;;;11.32;9.93;;;;;;;;;;5093106;28;20202;-60
2022/11/17 07:32:01;;;;;;;10.40;9.40;;;;;;;;;;5092947;28;20282;-61
2022/11/17 07:34:28;;;;;;;11.68;10.40;;;;;;;;;;5092875;28;20286;-61
2022/11/17 07:36:56;;;;;;;11.32;10.13;;;;;;;;;;5093046;28;20277;-61
2022/11/17 07:39:23;;;;;;;11.35;9.80;;;;;;;;;;5092827;28;20643;-61
2022/11/17 07:41:50;;;;;;;9.90;8.88;;;;;;;;;;5093020;28;20186;-60
2022/11/17 07:44:17;;;;;;;11.27;10.13;;;;;;;;;;5092719;28;20224;-61
2022/11/17 07:46:43;;;;;;;10.32;9.32;;;;;;;;;;5092598;28;20628;-61
2022/11/17 07:49:10;;;;;;;10.52;9.38;;;;;;;;;;5092729;28;20191;-61
2022/11/17 07:51:37;;;;;;;10.90;9.20;;;;;;;;;;5092847;28;20190;-61
2022/11/17 07:54:06;;;;;;;11.40;10.20;;;;;;;;;;5092744;28;20186;-61
2022/11/17 07:56:32;;;;;;;9.90;8.88;;;;;;;;;;5092676;28;20196;-61
2022/11/17 07:58:59;;;;;;;10.95;9.85;;;;;;;;;;5092643;28;20209;-61
2022/11/17 08:01:27;;;;;;;10.10;8.95;;;;;;;;;;5092585;28;20696;-61
2022/11/17 08:03:53;;;;;;;9.35;8.15;;;;;;;;;;5092468;28;20218;-61
2022/11/17 08:06:21;;;;;;;9.23;8.32;;;;;;;;;;5092667;28;20197;-61
2022/11/17 08:08:48;;;;;;;10.15;9.10;;;;;;;;;;5092536;28;20285;-61
2022/11/17 08:11:18;;;;;;;9.95;8.95;;;;;;;;;;5092634;28;20198;-61
2022/11/17 08:13:45;;;;;;;11.18;9.43;;;;;;;;;;5092545;28;20190;-61
2022/11/17 08:16:12;;;;;;;13.55;10.25;;;;;;;;;;5092404;28;20186;-61
2022/11/17 08:18:39;;;;;;;10.05;8.57;;;;;;;;;;5092420;28;20667;-61
2022/11/17 08:21:07;;;;;;;11.73;9.90;;;;;;;;;;5092552;28;20196;-60
2022/11/17 08:23:35;;;;;;;11.88;9.63;;;;;;;;;;5092395;28;20219;-61
2022/11/17 08:26:02;;;;;;;11.18;9.75;;;;;;;;;;5092255;28;20650;-60
2022/11/17 08:28:30;;;;;;;11.35;10.15;;;;;;;;;;5092167;28;20616;-61
2022/11/17 08:30:57;;;;;;;11.10;9.60;;;;;;;;;;5091977;28;20642;-61
2022/11/17 08:33:24;;;;;;;10.88;9.75;;;;;;;;;;5092032;28;20267;-59
2022/11/17 08:35:53;;;;;;;10.60;9.50;;;;;;;;;;5093601;28;20194;-61
2022/11/17 08:38:20;;;;;;;15.10;11.25;;;;;;;;;;5096213;28;20195;-64
2022/11/17 08:40:47;;;;;;;11.25;9.88;;;;;;;;;;5081461;28;20286;-62
2022/11/17 08:43:13;;;;;;;17.90;10.30;;;;;;;;;;5075612;28;20675;-60
2022/11/17 08:45:44;;;;;;;14.23;10.30;;;;;;;;;;5076101;28;20543;-62
2022/11/17 08:48:13;;;;;;;13.25;11.63;;;;;;;;;;5075586;28;20633;-62
2022/11/17 08:50:44;;;;;;;13.00;10.80;;;;;;;;;;5075685;28;20202;-61
2022/11/17 08:53:17;;;;;;;13.60;11.30;;;;;;;;;;5075680;28;20282;-60
2022/11/17 08:55:48;;;;;;;13.43;11.38;;;;;;;;;;5075507;28;20196;-61
2022/11/17 08:58:17;;;;;;;14.35;11.13;;;;;;;;;;5075959;28;20192;-64
2022/11/17 09:00:46;;;;;;;11.75;10.07;;;;;;;;;;5084688;28;20269;-63
2022/11/17 09:03:12;;;;;;;14.48;10.82;;;;;;;;;;5095315;28;20610;-62
2022/11/17 09:05:48;;;;;;;13.68;10.57;;;;;;;;;;5095565;28;20305;-62
2022/11/17 09:08:15;;;;;;;12.65;11.00;;;;;;;;;;5095213;28;20195;-62
2022/11/17 09:10:42;;;;;;;14.50;11.20;;;;;;;;;;5095474;28;20221;-60
2022/11/17 09:13:09;;;;;;;15.00;11.45;;;;;;;;;;5095608;28;20225;-60
2022/11/17 09:15:36;;;;;;;14.05;12.10;;;;;;;;;;5095418;28;20281;-60
2022/11/17 09:18:04;;;;;;;13.73;11.50;;;;;;;;;;5095235;28;20545;-63
2022/11/17 09:20:31;;;;;;;14.75;11.73;;;;;;;;;;5095355;28;20286;-61
2022/11/17 09:23:01;;;;;;;15.75;11.02;;;;;;;;;;5091388;28;20689;-60
2022/11/17 09:25:27;;;;;;;14.98;12.05;;;;;;;;;;5079048;28;20254;-60
2022/11/17 09:27:57;;;;;;;15.63;12.35;;;;;;;;;;5075058;28;20187;-62
2022/11/17 09:30:24;;;;;;;15.77;11.93;;;;;;;;;;5080142;28;20186;-62
2022/11/17 09:32:51;;;;;;;16.65;12.20;;;;;;;;;;5083989;28;20194;-61
2022/11/17 09:35:21;;;;;;;15.50;12.57;;;;;;;;;;5081570;28;20663;-63
2022/11/17 09:37:48;;;;;;;16.63;12.45;;;;;;;;;;5082633;28;20244;-60
2022/11/17 09:40:18;;;;;;;16.50;11.95;;;;;;;;;;5076730;28;20198;-56
2022/11/17 09:42:45;;;;;;;17.20;12.73;;;;;;;;;;5086421;28;20279;-59
2022/11/17 09:45:15;;;;;;;15.15;11.80;;;;;;;;;;5094660;28;20213;-60
2022/11/17 09:47:44;;;;;;;15.05;11.00;;;;;;;;;;5094374;28;20306;-64
2022/11/17 09:50:15;;;;;;;14.73;11.90;;;;;;;;;;5094572;28;20277;-61
2022/11/17 09:52:49;;;;;;;16.45;11.15;;;;;;;;;;5094904;28;20281;-61
2022/11/17 09:55:23;;;;;;;17.98;11.80;;;;;;;;;;5080106;28;20550;-61
2022/11/17 09:57:52;;;;;;;16.90;11.93;;;;;;;;;;5074491;28;20198;-61
2022/11/17 10:00:24;;;;;;;17.10;12.77;;;;;;;;;;5074301;28;20191;-61
2022/11/17 10:02:54;;;;;;;14.07;12.27;;;;;;;;;;5074477;28;20195;-62
2022/11/17 10:05:26;;;;;;;17.67;11.85;;;;;;;;;;5074177;28;20219;-62
2022/11/17 10:07:59;;;;;;;15.80;12.98;;;;;;;;;;5074242;28;20191;-61
2022/11/17 10:10:35;;;;;;;15.10;11.95;;;;;;;;;;5074068;28;20195;-61
2022/11/17 10:13:03;;;;;;;16.60;12.52;;;;;;;;;;5074009;28;20192;-61
2022/11/17 10:15:33;;;;;;;14.15;12.20;;;;;;;;;;5073752;28;20667;-60
2022/11/17 10:18:02;;;;;;;21.63;12.05;;;;;;;;;;5074318;28;20224;-61
2022/11/17 10:20:29;;;;;;;15.90;12.20;;;;;;;;;;5074005;28;20230;-60
2022/11/17 10:23:00;;;;;;;14.73;12.38;;;;;;;;;;5073817;28;20195;-61
2022/11/17 10:25:37;;;;;;;16.98;12.85;;;;;;;;;;5073817;28;20215;-61
2022/11/17 10:28:04;;;;;;;13.88;11.40;;;;;;;;;;5073924;28;20209;-60
2022/11/17 10:30:31;;;;;;;13.25;11.00;;;;;;;;;;5073790;28;20192;-61
2022/11/17 10:32:59;;;;;;;12.93;11.50;;;;;;;;;;5073752;28;20227;-60
2022/11/17 10:35:29;;;;;;;15.52;12.15;;;;;;;;;;5073410;28;20436;-60
2022/11/17 10:37:58;;;;;;;16.83;13.30;;;;;;;;;;5075758;28;20179;-61
2022/11/17 10:40:26;;;;;;;14.68;12.43;;;;;;;;;;5090713;28;20190;-70
2022/11/17 10:42:55;;;;;;;16.35;11.98;;;;;;;;;;5093881;28;20187;-68
2022/11/17 10:45:22;;;;;;;13.50;12.10;;;;;;;;;;5088199;28;20214;-65
2022/11/17 10:47:49;;;;;;;12.77;11.45;;;;;;;;;;5093233;28;20657;-65
2022/11/17 10:50:19;;;;;;;13.50;11.18;;;;;;;;;;5093359;28;20217;-66
2022/11/17 10:52:46;;;;;;;14.65;11.55;;;;;;;;;;5080752;28;20275;-62
2022/11/17 10:55:26;;;;;;;18.95;11.73;;;;;;;;;;5073308;28;20256;-64
2022/11/17 10:57:54;;;;;;;12.38;10.52;;;;;;;;;;5080770;28;20336;-64
2022/11/17 11:00:25;;;;;;;14.75;11.23;;;;;;;;;;5080542;28;20194;-64
2022/11/17 11:03:03;;;;;;;14.07;10.93;;;;;;;;;;5080855;28;20271;-64
2022/11/17 11:05:30;;;;;;;11.82;10.52;;;;;;;;;;5073191;28;20313;-65
2022/11/17 11:08:08;;;;;;;14.10;11.25;;;;;;;;;;5076148;28;20187;-68
2022/11/17 11:10:36;;;;;;;13.48;11.38;;;;;;;;;;5090411;28;20554;-69
2022/11/17 11:13:07;;;;;;;14.15;12.40;;;;;;;;;;5093051;28;20195;-75
2022/11/17 11:15:35;;;;;;;12.00;10.73;;;;;;;;;;5092989;28;20289;-64
2022/11/17 11:18:02;;;;;;;13.05;10.88;;;;;;;;;;5093333;28;20552;-62
2022/11/17 11:20:33;;;;;;;16.20;11.73;;;;;;;;;;5093098;28;20235;-62
2022/11/17 11:23:05;;;;;;;12.57;10.80;;;;;;;;;;5093104;28;20218;-63
2022/11/17 11:25:35;;;;;;;13.68;11.20;;;;;;;;;;5093033;28;20260;-70
2022/11/17 11:28:12;;;;;;;13.70;10.52;;;;;;;;;;5083951;28;20279;-67
2022/11/17 11:30:43;;;;;;;14.70;11.27;;;;;;;;;;5087414;28;20226;-61
2022/11/17 11:33:21;;;;;;;11.65;10.25;;;;;;;;;;5092894;28;20297;-61
2022/11/17 11:35:56;;;;;;;14.07;11.25;;;;;;;;;;5092944;28;20188;-62
2022/11/17 11:38:29;;;;;;;11.50;9.00;;;;;;;;;;5093041;28;20200;-69
2022/11/17 11:41:03;;;;;;;11.27;9.98;;;;;;;;;;5093126;28;20228;-68
2022/11/17 11:43:33;;;;;;;12.75;11.35;;;;;;;;;;5092875;28;20285;-70
2022/11/17 11:46:04;;;;;;;10.98;9.75;;;;;;;;;;5092892;28;20245;-67
2022/11/17 11:48:32;;;;;;;11.20;10.00;;;;;;;;;;5089386;28;20222;-70
2022/11/17 11:51:00;;;;;;;10.50;9.40;;;;;;;;;;5082856;28;20184;-67
2022/11/17 11:53:31;;;;;;;13.77;10.00;;;;;;;;;;5072710;28;20835;-62
2022/11/17 11:56:10;;;;;;;13.40;11.83;;;;;;;;;;5072107;28;20457;-65
2022/11/17 11:58:42;;;;;;;11.80;9.90;;;;;;;;;;5072641;28;20456;-64
2022/11/17 12:01:10;;;;;;;10.95;9.85;;;;;;;;;;5072363;28;20210;-65
2022/11/17 12:03:41;;;;;;;13.45;9.68;;;;;;;;;;5078047;28;20589;-66
2022/11/17 12:09:11;;;;;;;13.90;12.30;;;;;;;;;;5075881;28;20456;-73
2022/11/17 12:14:25;;;;;;;10.90;9.77;;;;;;;;;;5075757;28;20276;-71
2022/11/17 12:17:00;;;;;;;10.82;9.73;;;;;;;;;;5087468;28;20611;-68
2022/11/17 12:19:46;;;;;;;11.20;10.05;;;;;;;;;;5096653;28;20191;-69
2022/11/17 12:22:15;;;;;;;11.18;10.07;;;;;;;;;;5096277;28;20196;-72
2022/11/17 12:24:42;;;;;;;12.18;10.73;;;;;;;;;;5096411;28;20286;-69
2022/11/17 12:27:28;;;;;;;11.63;9.43;;;;;;;;;;5096416;28;20244;-68
2022/11/17 12:29:56;;;;;;;12.30;9.70;;;;;;;;;;5075782;28;20356;-65
2022/11/17 12:32:38;;;;;;;10.68;9.15;;;;;;;;;;5075988;28;20558;-71
2022/11/17 12:35:23;;;;;;;13.13;11.43;;;;;;;;;;5075175;28;20285;-70
2022/11/17 12:37:49;;;;;;;16.58;10.93;;;;;;;;;;5094126;28;20194;-69
2022/11/17 12:40:31;;;;;;;11.18;9.95;;;;;;;;;;5095849;28;20280;-75
2022/11/17 12:43:17;;;;;;;11.40;10.20;;;;;;;;;;5091152;28;20280;-64
2022/11/17 12:45:55;;;;;;;12.10;9.65;;;;;;;;;;5093513;28;20298;-67
2022/11/17 12:48:23;;;;;;;11.63;10.05;;;;;;;;;;5095812;28;20222;-69
2022/11/17 12:50:53;;;;;;;11.25;10.05;;;;;;;;;;5089729;28;20278;-70
2022/11/17 12:53:26;;;;;;;11.75;10.15;;;;;;;;;;5090430;28;20196;-63
2022/11/17 12:56:01;;;;;;;11.13;10.02;;;;;;;;;;5096031;28;20191;-69
2022/11/17 12:58:34;;;;;;;11.55;9.38;;;;;;;;;;5095842;28;20286;-67
2022/11/17 13:01:09;;;;;;;10.75;9.75;;;;;;;;;;5095572;28;20715;-62
2022/11/17 13:03:39;;;;;;;10.73;9.63;;;;;;;;;;5095633;28;20192;-63
2022/11/17 13:06:07;;;;;;;11.18;9.40;;;;;;;;;;5095837;28;20312;-61
2022/11/17 13:08:34;;;;;;;10.90;9.30;;;;;;;;;;5095679;28;20191;-67
2022/11/17 13:11:04;;;;;;;10.57;9.23;;;;;;;;;;5089209;28;20589;-64
2022/11/17 13:13:31;;;;;;;11.68;10.40;;;;;;;;;;5095342;28;20282;-65
2022/11/17 13:15:59;;;;;;;11.05;9.93;;;;;;;;;;5083046;28;20279;-65
2022/11/17 13:18:29;;;;;;;10.15;9.15;;;;;;;;;;5075064;28;20793;-60
2022/11/17 13:20:57;;;;;;;12.98;11.48;;;;;;;;;;5075096;28;20201;-59
2022/11/17 13:23:24;;;;;;;12.50;10.13;;;;;;;;;;5074831;28;20192;-61
2022/11/17 13:25:52;;;;;;;13.10;11.05;;;;;;;;;;5074873;28;20315;-61
2022/11/17 13:28:28;;;;;;;10.75;9.55;;;;;;;;;;5074924;28;20196;-61
2022/11/17 13:30:55;;;;;;;12.23;10.95;;;;;;;;;;5074627;28;20196;-60
2022/11/17 13:33:23;;;;;;;12.25;10.02;;;;;;;;;;5074899;28;20196;-59
2022/11/17 13:36:04;;;;;;;12.25;9.80;;;;;;;;;;5077202;28;20214;-64
2022/11/17 13:38:31;;;;;;;10.70;9.60;;;;;;;;;;5092800;28;20217;-62
2022/11/17 13:40:58;;;;;;;9.95;8.95;;;;;;;;;;5094856;28;20191;-69
2022/11/17 13:43:26;;;;;;;11.20;9.75;;;;;;;;;;5110820;28;20208;-70
2022/11/17 13:45:55;;;;;;;11.60;10.10;;;;;;;;;;5115364;28;20676;-70
2022/11/17 13:48:32;;;;;;;12.85;11.45;;;;;;;;;;5115083;28;20301;-68
2022/11/17 13:51:13;;;;;;;12.93;11.20;;;;;;;;;;5115532;28;20190;-75
2022/11/17 13:53:43;;;;;;;12.85;11.55;;;;;;;;;;5115093;28;20200;-84
2022/11/17 13:56:20;;;;;;;11.93;10.52;;;;;;;;;;5115174;28;20559;-67
2022/11/17 13:58:49;;;;;;;11.00;9.70;;;;;;;;;;5115010;28;20190;-61
2022/11/17 14:01:21;;;;;;;15.30;11.80;;;;;;;;;;5114139;28;20190;-61
2022/11/17 14:03:48;;;;;;;14.25;11.48;;;;;;;;;;5114580;28;20197;-62
2022/11/17 14:06:15;;;;;;;12.18;10.88;;;;;;;;;;5114604;28;20798;-62
2022/11/17 14:08:44;;;;;;;12.90;11.15;;;;;;;;;;5115085;28;20191;-61
2022/11/17 14:11:20;;;;;;;13.73;10.75;;;;;;;;;;5114773;28;20218;-62
2022/11/17 14:13:47;;;;;;;11.50;10.27;;;;;;;;;;5114593;28;20212;-61
2022/11/17 14:16:20;;;;;;;13.50;11.25;;;;;;;;;;5114702;28;20230;-61
2022/11/17 14:18:55;;;;;;;15.70;12.00;;;;;;;;;;5114598;28;20671;-62
2022/11/17 14:21:22;;;;;;;11.98;10.55;;;;;;;;;;5114733;28;20284;-62
2022/11/17 14:24:00;;;;;;;14.00;11.30;;;;;;;;;;5114802;28;20621;-61
2022/11/17 14:26:27;;;;;;;13.77;10.90;;;;;;;;;;5114506;28;20312;-61
2022/11/17 14:29:00;;;;;;;14.18;12.07;;;;;;;;;;5114471;28;20197;-61
2022/11/17 14:31:28;;;;;;;11.48;10.18;;;;;;;;;;5114784;28;20281;-61
2022/11/17 14:33:55;;;;;;;13.10;11.80;;;;;;;;;;5113575;28;20198;-61
2022/11/17 14:36:22;;;;;;;11.48;10.38;;;;;;;;;;5114251;28;20220;-61
2022/11/17 14:38:50;;;;;;;12.45;11.00;;;;;;;;;;5114390;28;20281;-61
2022/11/17 14:41:17;;;;;;;12.20;10.98;;;;;;;;;;5114276;28;20197;-61
2022/11/17 14:43:45;;;;;;;11.07;9.88;;;;;;;;;;5114160;28;20229;-61
2022/11/17 14:46:17;;;;;;;12.63;10.07;;;;;;;;;;5114169;28;20229;-61
2022/11/17 14:48:44;;;;;;;10.23;9.18;;;;;;;;;;5114029;28;20314;-62
2022/11/17 14:51:11;;;;;;;13.00;11.50;;;;;;;;;;5114338;28;20273;-61
2022/11/17 14:53:38;;;;;;;13.73;10.75;;;;;;;;;;5114095;28;20220;-61
2022/11/17 14:56:08;;;;;;;13.50;11.90;;;;;;;;;;5113804;28;20197;-62
2022/11/17 14:58:35;;;;;;;12.23;10.13;;;;;;;;;;5114448;28;20289;-61
2022/11/17 15:01:07;;;;;;;13.27;11.80;;;;;;;;;;5113968;28;20255;-61
2022/11/17 15:03:34;;;;;;;12.38;10.68;;;;;;;;;;5113889;28;20201;-61
2022/11/17 15:06:01;;;;;;;12.70;11.40;;;;;;;;;;5113628;28;20674;-61
2022/11/17 15:08:27;;;;;;;12.10;10.90;;;;;;;;;;5113724;28;20190;-61
2022/11/17 15:10:55;;;;;;;11.45;10.20;;;;;;;;;;5113593;28;20185;-61